createdAt,value
2022-08-05T00:01:13.665Z,9
2022-08-05T00:05:56.036Z,9
2022-08-05T00:10:38.251Z,9
2022-08-05T00:15:20.568Z,9
2022-08-05T00:20:02.841Z,9
2022-08-05T00:24:45.079Z,9
2022-08-05T00:29:27.396Z,9
2022-08-05T00:34:09.669Z,9
2022-08-05T00:38:51.876Z,9
2022-08-05T00:43:34.231Z,9
2022-08-05T00:48:16.477Z,9
2022-08-05T00:57:42.087Z,9
2022-08-05T01:02:22.399Z,9
2022-08-05T01:07:04.600Z,9
2022-08-05T01:11:46.879Z,9
2022-08-05T01:16:29.170Z,9
2022-08-05T01:21:11.480Z,9
2022-08-05T01:25:53.770Z,9
2022-08-05T01:30:35.963Z,9
2022-08-05T01:35:18.272Z,9
2022-08-05T01:40:00.588Z,9
2022-08-05T01:44:42.801Z,9
2022-08-05T01:49:25.133Z,9
2022-08-05T01:54:07.420Z,9
2022-08-05T01:58:49.732Z,9
2022-08-05T02:03:30.944Z,9
2022-08-05T02:08:13.246Z,9
2022-08-05T02:12:55.534Z,9
2022-08-05T02:17:45.216Z,9
2022-08-05T02:22:20.137Z,9
2022-08-05T02:27:02.369Z,9
2022-08-05T02:31:44.673Z,9
2022-08-05T02:36:26.892Z,9
2022-08-05T02:41:09.188Z,9
2022-08-05T02:45:51.493Z,9
2022-08-05T02:50:33.712Z,9
2022-08-05T02:55:16.013Z,9
2022-08-05T02:59:58.319Z,9
2022-08-05T03:04:39.661Z,9
2022-08-05T03:09:21.884Z,9
2022-08-05T03:14:04.194Z,12
2022-08-05T03:18:46.445Z,15
2022-08-05T03:23:28.709Z,20
2022-08-05T03:28:11.033Z,27
2022-08-05T03:32:53.306Z,64
2022-08-05T03:37:35.585Z,60
2022-08-05T03:42:17.824Z,139
2022-08-05T03:47:00.301Z,230
2022-08-05T03:51:42.407Z,336
2022-08-05T03:56:24.615Z,501
2022-08-05T04:05:49.273Z,885
2022-08-05T04:10:30.544Z,1002
2022-08-05T04:15:15.374Z,1203
2022-08-05T04:19:55.062Z,1468
2022-08-05T04:24:37.322Z,1824
2022-08-05T04:29:19.663Z,2050
2022-08-05T04:34:11.578Z,2006
2022-08-05T04:38:44.236Z,2480
2022-08-05T04:43:26.446Z,2840
2022-08-05T04:48:08.767Z,3653
2022-08-05T04:52:51.074Z,3889
2022-08-05T04:57:33.274Z,3418
2022-08-05T05:02:15.581Z,3624
2022-08-05T05:06:57.896Z,3882
2022-08-05T05:11:39.194Z,4021
2022-08-05T05:16:21.402Z,3970
2022-08-05T05:21:03.712Z,3627
2022-08-05T05:25:46.019Z,3424
2022-08-05T05:30:28.638Z,4027
2022-08-05T05:35:10.536Z,5146
2022-08-05T05:39:52.845Z,5847
2022-08-05T05:44:35.152Z,5844
2022-08-05T05:49:17.356Z,6350
2022-08-05T05:53:59.673Z,6840
2022-08-05T05:58:41.972Z,8132
2022-08-05T06:03:24.189Z,10046
2022-08-05T06:08:06.493Z,10265
2022-08-05T06:12:48.799Z,11211
2022-08-05T06:17:30.120Z,12187
2022-08-05T06:22:12.309Z,9885
2022-08-05T06:26:54.618Z,8550
2022-08-05T06:31:36.927Z,7284
2022-08-05T06:36:19.232Z,8432
2022-08-05T06:45:43.748Z,13361
2022-08-05T06:50:26.064Z,19823
2022-08-05T06:55:08.276Z,21199
2022-08-05T06:59:50.572Z,16455
2022-08-05T07:04:32.875Z,11593
2022-08-05T07:09:15.196Z,11210
2022-08-05T07:13:57.396Z,13316
2022-08-05T07:18:38.704Z,13020
2022-08-05T07:23:21.035Z,9536
2022-08-05T07:28:03.319Z,8420
2022-08-05T07:32:45.525Z,10111
2022-08-05T07:37:27.831Z,10718
2022-08-05T07:42:10.141Z,9174
2022-08-05T07:46:52.347Z,9945
2022-08-05T07:51:34.682Z,10972
2022-08-05T07:56:16.963Z,11600
2022-08-05T08:00:59.273Z,11205
2022-08-05T08:05:41.480Z,11190
2022-08-05T08:10:23.786Z,13576
2022-08-05T08:15:06.094Z,20737
2022-08-05T08:19:47.435Z,23804
2022-08-05T08:24:29.624Z,24551
2022-08-05T08:29:11.922Z,26993
2022-08-05T08:33:54.236Z,31194
2022-08-05T08:38:36.459Z,31698
2022-08-05T08:43:18.743Z,29477
2022-08-05T08:48:01.781Z,32279
2022-08-05T08:52:43.289Z,27448
2022-08-05T08:57:25.599Z,33195
2022-08-05T09:02:07.911Z,32068
2022-08-05T09:06:50.114Z,22132
2022-08-05T09:11:32.427Z,15231
2022-08-05T09:16:14.733Z,15237
2022-08-05T09:20:56.054Z,16175
2022-08-05T09:25:38.249Z,18603
2022-08-05T09:30:20.555Z,20382
2022-08-05T09:35:02.861Z,31736
2022-08-05T09:39:45.172Z,13790
2022-08-05T09:44:27.378Z,35947
2022-08-05T09:49:09.683Z,39718
2022-08-05T09:53:52.000Z,40970
2022-08-05T09:58:34.203Z,42414
2022-08-05T10:03:16.509Z,37573
2022-08-05T10:07:58.817Z,54979
2022-08-05T10:12:41.134Z,51661
2022-08-05T10:17:25.498Z,30841
2022-08-05T10:22:04.647Z,21074
2022-08-05T10:26:46.958Z,33911
2022-08-05T10:31:29.256Z,14944
2022-08-05T10:36:11.567Z,26660
2022-08-05T10:40:53.776Z,28148
2022-08-05T10:45:36.084Z,47336
2022-08-05T10:50:18.396Z,32589
2022-08-05T10:55:00.714Z,48556
2022-08-05T10:59:42.911Z,28476
2022-08-05T11:04:25.217Z,25955
2022-08-05T11:09:07.525Z,21831
2022-08-05T11:13:49.846Z,25894
2022-08-05T11:18:32.144Z,30791
2022-08-05T11:23:13.348Z,30518
2022-08-05T11:27:55.665Z,24073
2022-08-05T11:32:37.975Z,26419
2022-08-05T11:37:20.278Z,31839
2022-08-05T11:42:01.581Z,25467
2022-08-05T11:46:43.895Z,32488
2022-08-05T11:51:43.445Z,35120
2022-08-05T11:56:08.406Z,34743
2022-08-05T12:00:50.716Z,36180
2022-08-05T12:05:33.026Z,29573
2022-08-05T12:10:15.332Z,34030
2022-08-05T12:14:57.644Z,25866
2022-08-05T12:19:39.953Z,32098
2022-08-05T12:24:22.184Z,57764
2022-08-05T12:29:04.478Z,58985
2022-08-05T12:33:46.780Z,59179
2022-08-05T12:38:29.088Z,18018
2022-08-05T12:43:10.400Z,22785
2022-08-05T12:52:34.919Z,22167
2022-08-05T12:57:17.218Z,34082
2022-08-05T13:01:59.552Z,28058
2022-08-05T13:06:41.840Z,30542
2022-08-05T13:11:24.150Z,30875
2022-08-05T13:16:06.453Z,30427
2022-08-05T13:20:48.663Z,29994
2022-08-05T13:25:30.970Z,30958
2022-08-05T13:30:31.100Z,24001
2022-08-05T13:34:55.606Z,26651
2022-08-05T13:39:44.847Z,28823
2022-08-05T13:44:19.203Z,16012
2022-08-05T13:49:01.415Z,25984
2022-08-05T13:53:43.722Z,20600
2022-08-05T13:58:26.031Z,25589
2022-08-05T14:03:08.338Z,24675
2022-08-05T14:07:50.648Z,24478
2022-08-05T14:12:32.857Z,24197
2022-08-05T14:17:15.166Z,20400
2022-08-05T14:22:06.702Z,19899
2022-08-05T14:26:39.816Z,21712
2022-08-05T14:31:22.100Z,25256
2022-08-05T14:36:04.318Z,28507
2022-08-05T14:40:46.608Z,27301
2022-08-05T14:45:27.918Z,24302
2022-08-05T14:50:10.225Z,17510
2022-08-05T14:54:52.538Z,15984
2022-08-05T14:59:34.837Z,23082
2022-08-05T15:04:17.063Z,21179
2022-08-05T15:08:59.357Z,45827
2022-08-05T15:13:41.666Z,31656
2022-08-05T15:18:23.973Z,29265
2022-08-05T15:23:06.208Z,28915
2022-08-05T15:27:48.494Z,28273
2022-08-05T15:32:30.797Z,30468
2022-08-05T15:37:13.120Z,57737
2022-08-05T15:41:55.343Z,29106
2022-08-05T15:46:36.643Z,25118
2022-08-05T15:51:18.934Z,20925
2022-08-05T15:56:01.262Z,49539
2022-08-05T16:00:43.551Z,44879
2022-08-05T16:05:25.784Z,45378
2022-08-05T16:10:08.079Z,44186
2022-08-05T16:14:50.394Z,19702
2022-08-05T16:19:32.687Z,16915
2022-08-05T16:24:14.911Z,13397
2022-08-05T16:28:57.232Z,15217
2022-08-05T16:33:39.505Z,22826
2022-08-05T16:38:21.846Z,36986
2022-08-05T16:43:04.028Z,32869
2022-08-05T16:47:45.334Z,24564
2022-08-05T16:52:27.638Z,17855
2022-08-05T16:57:09.951Z,15191
2022-08-05T17:01:52.154Z,14498
2022-08-05T17:06:34.476Z,14856
2022-08-05T17:11:16.782Z,13722
2022-08-05T17:15:59.103Z,9761
2022-08-05T17:20:41.295Z,8808
2022-08-05T17:25:23.628Z,7684
2022-08-05T17:30:05.909Z,7394
2022-08-05T17:34:48.254Z,6968
2022-08-05T17:39:30.427Z,6246
2022-08-05T17:44:12.740Z,5864
2022-08-05T17:48:54.065Z,4916
2022-08-05T17:53:36.358Z,4428
2022-08-05T17:58:18.569Z,3865
2022-08-05T18:03:00.901Z,2972
2022-08-05T18:07:43.184Z,2182
2022-08-05T18:12:25.381Z,1636
2022-08-05T18:17:07.712Z,1371
2022-08-05T18:21:50.000Z,1116
2022-08-05T18:26:32.282Z,866
2022-08-05T18:31:14.586Z,677
2022-08-05T18:35:59.407Z,528
2022-08-05T18:40:39.088Z,382
2022-08-05T18:45:21.406Z,263
2022-08-05T18:50:02.699Z,162
2022-08-05T18:54:44.925Z,109
2022-08-05T18:59:27.220Z,77
2022-08-05T19:04:09.525Z,47
2022-08-05T19:08:51.839Z,30
2022-08-05T19:13:35.509Z,18
2022-08-05T19:22:58.661Z,9
2022-08-05T19:27:40.867Z,9
2022-08-05T19:32:23.183Z,9
2022-08-05T19:41:57.973Z,9
2022-08-05T19:46:30.006Z,9
2022-08-05T19:51:11.310Z,9
2022-08-05T19:56:11.301Z,9
2022-08-05T20:00:35.841Z,9
2022-08-05T20:05:18.135Z,9
2022-08-05T20:10:00.447Z,9
2022-08-05T20:14:42.762Z,9
2022-08-05T20:19:24.969Z,9
2022-08-05T20:24:07.276Z,9
2022-08-05T20:28:49.587Z,9
2022-08-05T20:33:31.785Z,9
2022-08-05T20:38:14.105Z,9
2022-08-05T20:42:56.405Z,9
2022-08-05T20:47:38.618Z,9
2022-08-05T20:52:19.930Z,9
2022-08-05T20:57:02.248Z,9
2022-08-05T21:01:44.548Z,9
2022-08-05T21:06:26.750Z,9
2022-08-05T21:11:09.076Z,9
2022-08-05T21:15:51.365Z,9
2022-08-05T21:20:33.674Z,9
2022-08-05T21:25:15.903Z,9
2022-08-05T21:29:58.196Z,9
2022-08-05T21:34:40.502Z,9
2022-08-05T21:39:22.707Z,9
2022-08-05T21:44:05.028Z,9
2022-08-05T21:48:47.323Z,9
2022-08-05T21:53:28.630Z,9
2022-08-05T21:58:10.839Z,9
2022-08-05T22:02:53.149Z,9
2022-08-05T22:07:35.457Z,9
2022-08-05T22:12:17.666Z,9
2022-08-05T22:16:59.978Z,9
2022-08-05T22:21:42.289Z,9
2022-08-05T22:26:24.559Z,9
2022-08-05T22:31:06.851Z,9
2022-08-05T22:35:49.067Z,9
2022-08-05T22:40:31.376Z,9
2022-08-05T22:45:13.677Z,9
2022-08-05T22:50:00.241Z,9
2022-08-05T22:54:37.201Z,9
2022-08-05T22:59:19.501Z,9
2022-08-05T23:04:01.809Z,9
2022-08-05T23:08:44.148Z,4
2022-08-05T23:13:26.341Z,4
2022-08-05T23:18:08.637Z,9
2022-08-05T23:22:50.952Z,9
2022-08-05T23:32:15.462Z,9
2022-08-05T23:36:57.784Z,9
2022-08-05T23:41:39.982Z,9
2022-08-05T23:46:22.287Z,9
2022-08-05T23:51:04.597Z,9
2022-08-05T23:55:45.915Z,9
